Time;durP1;ratioP1;P1;durP2;ratioP2;P2;SDS_P1;SDS_P2;PMS_P1;PMS_P2;Temp;Humidity;BMP_temperature;BMP_pressure;BME280_temperature;BME280_humidity;BME280_pressure;Samples;Min_cycle;Max_cycle;Signal;HPM_P1;HPM_P2
2022/12/26 00:01:27;;;;;;;;;;;25.50;99.90;;;;;;5014061;28;19909;-89
2022/12/26 00:03:54;;;;;;;;;;;25.50;99.90;;;;;;5014617;28;20293;-89
2022/12/26 00:06:22;;;;;;;;;;;25.90;99.90;;;;;;5014522;28;19913;-89
2022/12/26 00:08:49;;;;;;;;;;;25.70;99.90;;;;;;5014462;28;20005;-83
2022/12/26 00:11:16;;;;;;;;;;;25.70;99.90;;;;;;5014681;28;19910;-68
2022/12/26 00:13:43;;;;;;;;;;;25.70;99.90;;;;;;5015557;28;19914;-84
2022/12/26 00:16:14;;;;;;;;;;;26.00;99.90;;;;;;5014598;28;19909;-90
2022/12/26 00:18:41;;;;;;;;;;;26.00;99.90;;;;;;5015754;28;20013;-82
2022/12/26 00:21:08;;;;;;;;;;;25.90;99.90;;;;;;5015693;28;19914;-91
2022/12/26 00:23:35;;;;;;;;;;;25.90;99.90;;;;;;5013947;28;19997;-82
2022/12/26 00:26:06;;;;;;;;;;;25.80;99.90;;;;;;5014491;28;19925;-82
2022/12/26 00:28:33;;;;;;;;;;;25.90;99.90;;;;;;5016125;28;19910;-74
2022/12/26 00:31:03;;;;;;;;;;;26.00;99.90;;;;;;5017196;28;19916;-87
2022/12/26 00:33:29;;;;;;;;;;;26.00;99.90;;;;;;5015530;28;19917;-89
2022/12/26 00:36:06;;;;;;;;;;;26.00;99.90;;;;;;5024005;28;19910;-88
2022/12/26 00:38:34;;;;;;;;;;;26.10;99.90;;;;;;5029658;28;19909;-85
2022/12/26 00:41:01;;;;;;;;;;;26.20;99.90;;;;;;5030647;28;19945;-81
2022/12/26 00:43:27;;;;;;;;;;;26.20;99.90;;;;;;5031901;28;19921;-88
2022/12/26 00:45:54;;;;;;;;;;;26.20;99.90;;;;;;5035574;28;19956;-82
2022/12/26 00:48:21;;;;;;;;;;;26.30;99.90;;;;;;5033057;28;19910;-81
2022/12/26 00:50:47;;;;;;;;;;;26.50;99.90;;;;;;5035160;28;19957;-70
2022/12/26 00:53:14;;;;;;;;;;;26.70;99.90;;;;;;5023469;28;20296;-73
2022/12/26 00:55:41;;;;;;;;;;;26.80;99.90;;;;;;5018837;28;19935;-87
2022/12/26 00:58:07;;;;;;;;;;;27.10;99.90;;;;;;5020176;28;19913;-81
2022/12/26 01:00:34;;;;;;;;;;;27.40;99.90;;;;;;5019290;28;19910;-75
2022/12/26 01:03:01;;;;;;;;;;;27.90;99.90;;;;;;5019088;28;20423;-80
2022/12/26 01:05:28;;;;;;;;;;;28.30;99.90;;;;;;5018921;28;19921;-84
2022/12/26 01:07:54;;;;;;;;;;;28.80;99.90;;;;;;5019102;28;19917;-80
2022/12/26 01:10:21;;;;;;;;;;;29.40;99.90;;;;;;5001772;28;20275;-88
2022/12/26 01:12:48;;;;;;;;;;;29.60;99.90;;;;;;5019438;28;19913;-82
2022/12/26 01:15:14;;;;;;;;;;;29.90;99.90;;;;;;5018321;28;19914;-85
2022/12/26 01:17:41;;;;;;;;;;;30.20;99.90;;;;;;5018640;28;19964;-71
2022/12/26 01:20:08;;;;;;;;;;;30.40;99.90;;;;;;5000065;28;19913;-64
2022/12/26 01:22:36;;;;;;;;;;;30.80;99.90;;;;;;5017892;28;19955;-79
2022/12/26 01:25:03;;;;;;;;;;;31.00;99.90;;;;;;5017662;28;19929;-84
2022/12/26 01:27:30;;;;;;;;;;;31.00;99.90;;;;;;5017908;28;19910;-78
2022/12/26 01:29:56;;;;;;;;;;;31.00;99.90;;;;;;5017802;28;19909;-89
2022/12/26 01:32:26;;;;;;;;;;;30.90;99.90;;;;;;5018340;28;20020;-71
2022/12/26 01:34:54;;;;;;;;;;;30.80;99.90;;;;;;5018594;28;19963;-80
2022/12/26 01:37:22;;;;;;;;;;;30.60;99.90;;;;;;5018498;28;19917;-80
2022/12/26 01:39:49;;;;;;;;;;;30.70;99.90;;;;;;5018139;28;20379;-76
2022/12/26 01:42:17;;;;;;;;;;;30.60;99.90;;;;;;5018661;28;20422;-79
2022/12/26 01:45:00;;;;;;;;;;;30.50;99.90;;;;;;5016978;28;19972;-65
2022/12/26 01:47:42;;;;;;;;;;;30.30;99.90;;;;;;5016040;28;19964;-64
2022/12/26 01:50:17;;;;;;;;;;;30.30;99.90;;;;;;5016792;28;19910;-84
2022/12/26 01:52:45;;;;;;;;;;;30.00;99.90;;;;;;5017102;28;19909;-76
2022/12/26 01:55:14;;;;;;;;;;;29.50;99.90;;;;;;5017117;28;20013;-77
2022/12/26 01:57:43;;;;;;;;;;;29.00;99.90;;;;;;5016682;28;19910;-85
2022/12/26 02:00:11;;;;;;;;;;;28.60;99.90;;;;;;5016130;28;20017;-76
2022/12/26 02:05:36;;;;;;;;;;;28.30;99.90;;;;;;5016092;28;20005;-83
2022/12/26 02:08:07;;;;;;;;;;;28.20;99.90;;;;;;5016133;28;19917;-83
2022/12/26 02:10:54;;;;;;;;;;;28.10;99.90;;;;;;5016447;28;20009;-87
2022/12/26 02:13:21;;;;;;;;;;;27.90;99.90;;;;;;4975631;28;19910;-71
2022/12/26 02:15:47;;;;;;;;;;;28.00;99.90;;;;;;5016674;28;19914;-87
2022/12/26 02:18:14;;;;;;;;;;;27.80;99.90;;;;;;5018177;28;20300;-83
2022/12/26 02:20:50;;;;;;;;;;;27.80;99.90;;;;;;5018574;28;20352;-85
2022/12/26 02:23:34;;;;;;;;;;;27.80;99.90;;;;;;5017851;28;19917;-88
2022/12/26 02:26:06;;;;;;;;;;;27.90;99.90;;;;;;5017175;28;19977;-86
2022/12/26 02:28:42;;;;;;;;;;;27.80;99.90;;;;;;5017802;28;20315;-80
2022/12/26 02:31:24;;;;;;;;;;;27.80;99.90;;;;;;5017771;28;19983;-90
2022/12/26 02:34:09;;;;;;;;;;;27.80;99.90;;;;;;5017940;28;20261;-78
2022/12/26 02:36:54;;;;;;;;;;;27.80;99.90;;;;;;5018116;28;19952;-80
2022/12/26 02:39:21;;;;;;;;;;;27.70;99.90;;;;;;5016758;28;19910;-85
2022/12/26 02:41:56;;;;;;;;;;;27.60;99.90;;;;;;5017509;28;20340;-88
2022/12/26 02:47:35;;;;;;;;;;;27.60;99.90;;;;;;5015456;28;19920;-65
2022/12/26 03:13:15;;;;;;;;;;;27.60;99.90;;;;;;5015775;28;19932;-65
2022/12/26 03:18:38;;;;;;;;;;;27.60;99.90;;;;;;5016072;28;19916;-75
2022/12/26 03:21:05;;;;;;;;;;;27.60;99.90;;;;;;5015752;28;19910;-73
2022/12/26 03:23:32;;;;;;;;;;;27.70;99.90;;;;;;4996681;28;19968;-78
2022/12/26 03:28:46;;;;;;;;;;;27.70;99.90;;;;;;5015409;28;19916;-81
2022/12/26 03:31:13;;;;;;;;;;;27.80;99.90;;;;;;5014909;28;19909;-77
2022/12/26 03:36:45;;;;;;;;;;;27.70;99.90;;;;;;5015740;28;20379;-66
2022/12/26 03:39:12;;;;;;;;;;;27.70;99.90;;;;;;5014916;28;19910;-67
2022/12/26 04:19:23;;;;;;;;;;;27.20;99.90;;;;;;5014116;28;20475;-65
2022/12/26 04:44:35;;;;;;;;;;;26.80;99.90;;;;;;5025990;28;19976;-69
2022/12/26 04:47:02;;;;;;;;;;;26.80;99.90;;;;;;5027645;28;19909;-75
2022/12/26 04:52:13;;;;;;;;;;;26.50;99.90;;;;;;5023522;28;19916;-79
2022/12/26 04:54:40;;;;;;;;;;;26.60;99.90;;;;;;5022475;28;20008;-89
2022/12/26 04:57:07;;;;;;;;;;;26.50;99.90;;;;;;5022590;28;19913;-75
2022/12/26 04:59:34;;;;;;;;;;;26.50;99.90;;;;;;5023124;28;20313;-90
2022/12/26 05:10:18;;;;;;;;;;;26.40;99.90;;;;;;5023966;28;19917;-92
2022/12/26 05:12:45;;;;;;;;;;;26.30;99.90;;;;;;5023561;28;20375;-88
2022/12/26 05:15:12;;;;;;;;;;;26.30;99.90;;;;;;5023291;28;19917;-76
2022/12/26 05:29:02;;;;;;;;;;;26.20;99.90;;;;;;5019642;28;19916;-91
2022/12/26 05:31:29;;;;;;;;;;;26.20;99.90;;;;;;5019753;28;19985;-92
2022/12/26 05:34:06;;;;;;;;;;;26.20;99.90;;;;;;5020290;28;19936;-88
2022/12/26 05:36:41;;;;;;;;;;;26.20;99.90;;;;;;5019939;28;19913;-93
2022/12/26 05:39:08;;;;;;;;;;;26.10;99.90;;;;;;5020110;28;19960;-88
2022/12/26 05:41:35;;;;;;;;;;;26.10;99.90;;;;;;5020082;28;20382;-86
2022/12/26 05:44:02;;;;;;;;;;;26.10;99.90;;;;;;5019569;28;19909;-91
2022/12/26 05:46:29;;;;;;;;;;;26.30;99.90;;;;;;5019783;28;19981;-89
2022/12/26 05:48:56;;;;;;;;;;;26.30;99.90;;;;;;5019365;28;19963;-91
2022/12/26 05:51:22;;;;;;;;;;;26.20;99.90;;;;;;5017809;28;20360;-90
2022/12/26 05:53:50;;;;;;;;;;;26.10;99.90;;;;;;5017574;28;20364;-85
2022/12/26 05:56:17;;;;;;;;;;;26.10;99.90;;;;;;5017492;28;20372;-87
2022/12/26 05:58:45;;;;;;;;;;;26.00;99.90;;;;;;5015573;28;19913;-87
2022/12/26 06:01:13;;;;;;;;;;;26.00;99.90;;;;;;5015328;28;19932;-83
2022/12/26 06:03:42;;;;;;;;;;;26.00;99.90;;;;;;5014930;28;19917;-83
2022/12/26 06:06:09;;;;;;;;;;;25.90;99.90;;;;;;5014819;28;19921;-90
2022/12/26 06:08:36;;;;;;;;;;;26.00;99.90;;;;;;5016229;28;19985;-85
2022/12/26 06:11:04;;;;;;;;;;;26.00;99.90;;;;;;5015866;28;20412;-83
2022/12/26 06:13:31;;;;;;;;;;;26.10;99.90;;;;;;5007112;28;19913;-86
2022/12/26 06:15:57;;;;;;;;;;;26.10;99.90;;;;;;5012411;28;19959;-84
2022/12/26 06:18:24;;;;;;;;;;;26.00;99.90;;;;;;5006958;28;19996;-86
2022/12/26 06:20:51;;;;;;;;;;;26.00;99.90;;;;;;5002598;28;19920;-84
2022/12/26 06:23:17;;;;;;;;;;;26.00;99.90;;;;;;5012981;28;20438;-86
2022/12/26 06:25:44;;;;;;;;;;;25.90;99.90;;;;;;5013711;28;19947;-82
2022/12/26 06:28:11;;;;;;;;;;;25.80;99.90;;;;;;5011488;28;19917;-86
2022/12/26 06:30:37;;;;;;;;;;;25.70;99.90;;;;;;5013706;28;19917;-92
2022/12/26 06:33:04;;;;;;;;;;;25.70;99.90;;;;;;5011244;28;19917;-84
2022/12/26 06:35:33;;;;;;;;;;;25.70;99.90;;;;;;5010711;28;19914;-82
2022/12/26 06:37:59;;;;;;;;;;;25.70;99.90;;;;;;5010843;28;19917;-84
2022/12/26 06:40:26;;;;;;;;;;;25.60;99.90;;;;;;5010199;28;20590;-85
2022/12/26 06:42:52;;;;;;;;;;;25.60;99.90;;;;;;5008632;28;20779;-85
2022/12/26 06:45:19;;;;;;;;;;;25.70;99.90;;;;;;5010349;28;19928;-91
2022/12/26 06:47:46;;;;;;;;;;;25.60;99.90;;;;;;5009656;28;19913;-84
2022/12/26 06:50:12;;;;;;;;;;;25.50;99.90;;;;;;5010962;28;20364;-87
2022/12/26 06:52:39;;;;;;;;;;;25.50;99.90;;;;;;5012158;28;20368;-90
2022/12/26 06:55:06;;;;;;;;;;;25.50;99.90;;;;;;5012297;28;19929;-87
2022/12/26 06:57:33;;;;;;;;;;;25.40;99.90;;;;;;5006715;28;20365;-81
2022/12/26 06:59:59;;;;;;;;;;;25.40;99.90;;;;;;5008875;28;19913;-83
2022/12/26 07:02:26;;;;;;;;;;;25.40;99.90;;;;;;5008075;28;19956;-86
2022/12/26 07:04:52;;;;;;;;;;;25.40;99.90;;;;;;5008401;28;19926;-86
2022/12/26 07:07:19;;;;;;;;;;;25.30;99.90;;;;;;5009656;28;19914;-85
2022/12/26 07:09:46;;;;;;;;;;;25.30;99.90;;;;;;5008661;28;20008;-83
2022/12/26 07:12:12;;;;;;;;;;;25.20;99.90;;;;;;5007327;28;20502;-85
2022/12/26 07:14:39;;;;;;;;;;;25.30;99.90;;;;;;5009093;28;20452;-78
2022/12/26 07:17:06;;;;;;;;;;;25.20;99.90;;;;;;5009710;28;19949;-88
2022/12/26 07:19:32;;;;;;;;;;;25.10;99.90;;;;;;5009027;28;19914;-79
2022/12/26 07:21:59;;;;;;;;;;;25.10;99.90;;;;;;5009417;28;19913;-85
2022/12/26 07:24:26;;;;;;;;;;;25.00;99.90;;;;;;5009964;28;20279;-81
2022/12/26 07:26:52;;;;;;;;;;;25.00;99.90;;;;;;5009101;28;20014;-84
2022/12/26 07:29:20;;;;;;;;;;;24.90;99.90;;;;;;5010587;28;19925;-88
2022/12/26 07:31:47;;;;;;;;;;;24.90;99.90;;;;;;5010256;28;19965;-87
2022/12/26 07:34:14;;;;;;;;;;;24.80;99.90;;;;;;5011303;28;19913;-79
2022/12/26 07:36:41;;;;;;;;;;;24.90;99.90;;;;;;5009885;28;19917;-76
2022/12/26 07:39:08;;;;;;;;;;;24.80;99.90;;;;;;5009618;28;20324;-77
2022/12/26 07:44:19;;;;;;;;;;;24.80;99.90;;;;;;5008452;28;19964;-85
2022/12/26 07:46:45;;;;;;;;;;;24.70;99.90;;;;;;5011847;28;19996;-87
2022/12/26 07:49:12;;;;;;;;;;;24.70;99.90;;;;;;5006422;28;20269;-87
2022/12/26 07:51:39;;;;;;;;;;;24.60;99.90;;;;;;5011667;28;20013;-81
2022/12/26 07:54:05;;;;;;;;;;;24.70;99.90;;;;;;5010761;28;20545;-77
2022/12/26 07:56:32;;;;;;;;;;;24.60;99.90;;;;;;5012714;28;20032;-88
2022/12/26 07:58:59;;;;;;;;;;;24.50;99.90;;;;;;5011516;28;19913;-88
2022/12/26 08:01:25;;;;;;;;;;;24.50;99.90;;;;;;5012356;28;19978;-85
2022/12/26 08:03:52;;;;;;;;;;;24.50;99.90;;;;;;5014253;28;19917;-82
2022/12/26 08:06:19;;;;;;;;;;;24.50;99.90;;;;;;5002408;28;19965;-85
2022/12/26 08:08:46;;;;;;;;;;;24.40;99.90;;;;;;5010462;28;20000;-86
2022/12/26 08:11:17;;;;;;;;;;;24.40;99.90;;;;;;5023044;28;19924;-90
2022/12/26 08:13:44;;;;;;;;;;;24.30;99.90;;;;;;5015014;28;19910;-83
2022/12/26 08:16:12;;;;;;;;;;;24.30;99.90;;;;;;5013367;28;20439;-79
2022/12/26 08:18:39;;;;;;;;;;;24.30;99.90;;;;;;5011099;28;20166;-82
2022/12/26 08:21:06;;;;;;;;;;;24.20;99.90;;;;;;4999226;28;20051;-82
2022/12/26 08:23:33;;;;;;;;;;;24.20;99.90;;;;;;4986071;28;20463;-85
2022/12/26 08:26:03;;;;;;;;;;;24.10;99.90;;;;;;4994900;28;20375;-85
2022/12/26 08:28:30;;;;;;;;;;;24.00;99.90;;;;;;4991338;28;20012;-82
2022/12/26 08:30:57;;;;;;;;;;;24.00;99.90;;;;;;4992469;28;19913;-86
2022/12/26 08:33:23;;;;;;;;;;;24.00;99.90;;;;;;5006376;28;20276;-72
2022/12/26 08:35:50;;;;;;;;;;;23.90;99.90;;;;;;5005677;28;20426;-83
2022/12/26 08:38:17;;;;;;;;;;;23.90;99.90;;;;;;5006374;28;19914;-86
2022/12/26 08:40:43;;;;;;;;;;;23.90;99.90;;;;;;5009340;28;20008;-79
2022/12/26 08:43:10;;;;;;;;;;;23.90;99.90;;;;;;5009700;28;19914;-77
2022/12/26 08:45:37;;;;;;;;;;;23.80;99.90;;;;;;5009278;28;19928;-85
2022/12/26 08:48:03;;;;;;;;;;;23.80;99.90;;;;;;5010164;28;20362;-88
2022/12/26 08:50:30;;;;;;;;;;;23.70;99.90;;;;;;5009181;28;19991;-91
2022/12/26 08:52:57;;;;;;;;;;;23.70;99.90;;;;;;5005298;28;20383;-78
2022/12/26 08:55:24;;;;;;;;;;;23.70;99.90;;;;;;5006653;28;20018;-84
2022/12/26 08:57:50;;;;;;;;;;;23.60;99.90;;;;;;4998258;28;19920;-90
2022/12/26 09:00:17;;;;;;;;;;;23.60;99.90;;;;;;4998277;28;19928;-78
2022/12/26 09:02:44;;;;;;;;;;;23.50;99.90;;;;;;5008078;28;19914;-73
2022/12/26 09:05:11;;;;;;;;;;;23.50;99.90;;;;;;5008869;28;19929;-84
2022/12/26 09:07:37;;;;;;;;;;;23.40;99.90;;;;;;5008800;28;19914;-77
2022/12/26 09:10:05;;;;;;;;;;;23.50;99.90;;;;;;5011405;28;19996;-77
2022/12/26 09:12:31;;;;;;;;;;;23.40;99.90;;;;;;5006102;28;19917;-88
2022/12/26 09:14:58;;;;;;;;;;;23.40;99.90;;;;;;5012495;28;19917;-81
2022/12/26 09:17:26;;;;;;;;;;;23.40;99.90;;;;;;4995128;28;20288;-83
2022/12/26 09:19:53;;;;;;;;;;;23.30;99.90;;;;;;4990861;28;19914;-79
2022/12/26 09:25:06;;;;;;;;;;;23.20;99.90;;;;;;4992377;28;19964;-66
2022/12/26 09:27:32;;;;;;;;;;;23.20;99.90;;;;;;4989210;28;19914;-88
2022/12/26 09:29:59;;;;;;;;;;;23.10;99.90;;;;;;5008217;28;19967;-79
2022/12/26 09:32:25;;;;;;;;;;;23.10;99.90;;;;;;5008844;28;20029;-79
2022/12/26 09:34:52;;;;;;;;;;;23.00;99.90;;;;;;5007908;28;20162;-74
2022/12/26 09:37:19;;;;;;;;;;;23.00;99.90;;;;;;5007775;28;20009;-78
2022/12/26 09:39:45;;;;;;;;;;;23.00;99.90;;;;;;5008499;28;19919;-78
2022/12/26 09:42:15;;;;;;;;;;;23.00;99.90;;;;;;5007872;28;19914;-72
2022/12/26 09:44:48;;;;;;;;;;;22.90;99.90;;;;;;5004984;28;20035;-75
2022/12/26 09:47:26;;;;;;;;;;;22.90;99.90;;;;;;5008519;28;20271;-86
2022/12/26 09:49:55;;;;;;;;;;;22.90;99.90;;;;;;5008386;28;19918;-84
2022/12/26 09:52:23;;;;;;;;;;;22.90;99.90;;;;;;5009074;28;19921;-87
2022/12/26 09:55:02;;;;;;;;;;;22.80;99.90;;;;;;5008575;28;20292;-79
2022/12/26 09:57:41;;;;;;;;;;;22.80;99.90;;;;;;5001675;28;19922;-78
2022/12/26 10:00:16;;;;;;;;;;;22.80;99.90;;;;;;5006012;28;19921;-77
2022/12/26 10:02:42;;;;;;;;;;;22.70;99.90;;;;;;5009272;28;19964;-80
2022/12/26 10:05:12;;;;;;;;;;;22.70;99.90;;;;;;5008805;28;19921;-83
2022/12/26 10:07:45;;;;;;;;;;;22.70;99.90;;;;;;5007254;28;19989;-81
2022/12/26 10:10:12;;;;;;;;;;;22.70;99.90;;;;;;5008299;28;19967;-82
2022/12/26 10:12:38;;;;;;;;;;;22.70;99.90;;;;;;5008045;28;19917;-78
2022/12/26 10:15:11;;;;;;;;;;;22.70;99.90;;;;;;5007093;28;19953;-80
2022/12/26 10:17:47;;;;;;;;;;;22.70;99.90;;;;;;5006955;28;19921;-72
2022/12/26 10:20:13;;;;;;;;;;;22.70;99.90;;;;;;5007526;28;20009;-80
2022/12/26 10:22:54;;;;;;;;;;;22.70;99.90;;;;;;5008083;28;19914;-67
2022/12/26 10:25:23;;;;;;;;;;;22.60;99.90;;;;;;5006432;28;19976;-76
2022/12/26 10:27:51;;;;;;;;;;;22.60;99.90;;;;;;5008324;28;19921;-74
2022/12/26 10:30:28;;;;;;;;;;;22.60;99.90;;;;;;5008690;28;19913;-76
2022/12/26 10:32:57;;;;;;;;;;;22.50;99.90;;;;;;5008308;28;19914;-88
2022/12/26 10:35:34;;;;;;;;;;;22.50;99.90;;;;;;5009099;28;20363;-84
2022/12/26 10:38:10;;;;;;;;;;;22.50;99.90;;;;;;5008850;28;19959;-84
2022/12/26 10:40:39;;;;;;;;;;;22.50;99.90;;;;;;5008077;28;19913;-82
2022/12/26 10:43:15;;;;;;;;;;;22.50;99.90;;;;;;5009058;28;19980;-83
2022/12/26 10:45:47;;;;;;;;;;;22.50;99.90;;;;;;5008548;28;20023;-90
2022/12/26 10:48:14;;;;;;;;;;;22.50;99.90;;;;;;5008730;28;20366;-90
2022/12/26 10:50:46;;;;;;;;;;;22.50;99.90;;;;;;5008613;28;19925;-87
2022/12/26 10:53:14;;;;;;;;;;;22.40;99.90;;;;;;5008147;28;19923;-89
2022/12/26 10:55:41;;;;;;;;;;;22.40;99.90;;;;;;5008308;28;19917;-86
2022/12/26 10:58:26;;;;;;;;;;;22.30;99.90;;;;;;5008945;28;20104;-79
2022/12/26 11:00:53;;;;;;;;;;;22.40;99.90;;;;;;5010714;28;19909;-78
2022/12/26 11:03:20;;;;;;;;;;;22.30;99.90;;;;;;5008908;28;19921;-81
2022/12/26 11:05:49;;;;;;;;;;;22.30;99.90;;;;;;5007437;28;19921;-81
2022/12/26 11:08:19;;;;;;;;;;;22.30;99.90;;;;;;5007938;28;19920;-89
2022/12/26 11:10:59;;;;;;;;;;;22.30;99.90;;;;;;5008647;28;19913;-91
2022/12/26 11:13:26;;;;;;;;;;;22.20;99.90;;;;;;5007195;28;20004;-83
2022/12/26 11:15:53;;;;;;;;;;;22.20;99.90;;;;;;5006812;28;20289;-78
2022/12/26 11:18:30;;;;;;;;;;;22.20;99.90;;;;;;5006182;28;20004;-80
2022/12/26 11:21:10;;;;;;;;;;;22.20;99.90;;;;;;5008065;28;19917;-86
2022/12/26 11:23:37;;;;;;;;;;;22.20;99.90;;;;;;5008099;28;19956;-80
2022/12/26 11:26:16;;;;;;;;;;;22.20;99.90;;;;;;5008300;28;19929;-83
2022/12/26 11:28:43;;;;;;;;;;;22.20;99.90;;;;;;5008370;28;19913;-80
2022/12/26 11:31:19;;;;;;;;;;;22.20;99.90;;;;;;5007117;28;19913;-91
2022/12/26 11:33:46;;;;;;;;;;;22.20;99.90;;;;;;5009376;28;19920;-89
2022/12/26 11:36:15;;;;;;;;;;;22.20;99.90;;;;;;5010044;28;20358;-91
2022/12/26 11:38:48;;;;;;;;;;;22.10;99.90;;;;;;5010612;28;19914;-82
2022/12/26 11:41:38;;;;;;;;;;;22.10;99.90;;;;;;5008741;28;20372;-80
2022/12/26 11:44:04;;;;;;;;;;;22.20;99.90;;;;;;5007644;28;19914;-76
2022/12/26 11:46:51;;;;;;;;;;;22.10;99.90;;;;;;5008910;28;19917;-77
2022/12/26 11:49:18;;;;;;;;;;;22.10;99.90;;;;;;5009607;28;19964;-74
2022/12/26 11:51:46;;;;;;;;;;;22.10;99.90;;;;;;5014458;28;19981;-87
2022/12/26 11:54:24;;;;;;;;;;;22.10;99.90;;;;;;5015900;28;19910;-88
2022/12/26 11:57:00;;;;;;;;;;;22.10;99.90;;;;;;5018822;28;19921;-70
2022/12/26 11:59:26;;;;;;;;;;;22.10;99.90;;;;;;5019553;28;19952;-79
2022/12/26 12:02:11;;;;;;;;;;;22.10;99.90;;;;;;5020835;28;19913;-74
2022/12/26 12:04:38;;;;;;;;;;;22.10;99.90;;;;;;5020663;28;20035;-88
2022/12/26 12:07:13;;;;;;;;;;;22.10;99.90;;;;;;5022351;28;19936;-71
2022/12/26 12:09:43;;;;;;;;;;;22.10;99.90;;;;;;5022607;28;19945;-88
2022/12/26 12:12:25;;;;;;;;;;;22.00;99.90;;;;;;5020422;28;20317;-89
2022/12/26 12:15:04;;;;;;;;;;;22.00;99.90;;;;;;5020800;28;19968;-71
2022/12/26 12:17:36;;;;;;;;;;;22.00;99.90;;;;;;5021009;28;19914;-90
2022/12/26 12:20:05;;;;;;;;;;;22.00;99.90;;;;;;5021830;28;20181;-73
2022/12/26 12:22:39;;;;;;;;;;;22.00;99.90;;;;;;5021681;28;19971;-87
2022/12/26 12:25:20;;;;;;;;;;;22.00;99.90;;;;;;5015399;28;19921;-83
2022/12/26 12:27:50;;;;;;;;;;;22.00;99.90;;;;;;5010214;28;19913;-83
2022/12/26 12:30:27;;;;;;;;;;;21.90;99.90;;;;;;5009948;28;20004;-77
2022/12/26 12:33:04;;;;;;;;;;;22.00;99.90;;;;;;5015000;28;19921;-76
2022/12/26 12:35:41;;;;;;;;;;;22.00;99.90;;;;;;5015807;28;20260;-91
2022/12/26 12:38:14;;;;;;;;;;;21.90;99.90;;;;;;5018546;28;19914;-76
2022/12/26 12:40:52;;;;;;;;;;;21.90;99.90;;;;;;5015541;28;19937;-74
2022/12/26 12:43:22;;;;;;;;;;;22.00;99.90;;;;;;5010480;28;19940;-92
2022/12/26 12:45:58;;;;;;;;;;;22.00;99.90;;;;;;5007200;28;20427;-89
2022/12/26 12:48:25;;;;;;;;;;;22.00;99.90;;;;;;5008350;28;19913;-87
2022/12/26 12:50:51;;;;;;;;;;;22.00;99.90;;;;;;5007501;28;19941;-91
2022/12/26 12:53:18;;;;;;;;;;;21.90;99.90;;;;;;5007809;28;19987;-91
2022/12/26 12:56:03;;;;;;;;;;;22.00;99.90;;;;;;5007565;28;20435;-85
2022/12/26 12:58:42;;;;;;;;;;;21.90;99.90;;;;;;5007529;28;19914;-88
2022/12/26 13:01:12;;;;;;;;;;;21.90;99.90;;;;;;5008530;28;20349;-80
2022/12/26 13:03:40;;;;;;;;;;;21.80;99.90;;;;;;5008617;28;19913;-89
2022/12/26 13:06:12;;;;;;;;;;;21.80;99.90;;;;;;5009003;28;19980;-86
2022/12/26 13:08:44;;;;;;;;;;;21.90;99.90;;;;;;5011876;28;19914;-80
2022/12/26 13:11:24;;;;;;;;;;;21.80;99.90;;;;;;5010539;28;20032;-87
2022/12/26 13:13:58;;;;;;;;;;;21.80;99.90;;;;;;5006170;28;19955;-90
2022/12/26 13:16:26;;;;;;;;;;;21.80;99.90;;;;;;5006959;28;19928;-87
2022/12/26 13:18:59;;;;;;;;;;;21.90;99.90;;;;;;5007714;28;20028;-77
2022/12/26 13:21:27;;;;;;;;;;;21.90;99.90;;;;;;5006157;28;19914;-69
2022/12/26 13:24:25;;;;;;;;;;;21.90;99.90;;;;;;5005926;28;19925;-84
2022/12/26 13:27:07;;;;;;;;;;;21.80;99.90;;;;;;5005825;28;19922;-80
2022/12/26 13:29:35;;;;;;;;;;;21.80;99.90;;;;;;5006622;28;20149;-89
2022/12/26 13:32:06;;;;;;;;;;;21.80;99.90;;;;;;5006844;28;20004;-73
2022/12/26 13:34:32;;;;;;;;;;;21.80;99.90;;;;;;5006836;28;19913;-80
2022/12/26 13:36:59;;;;;;;;;;;21.80;99.90;;;;;;5006626;28;19949;-76
2022/12/26 13:39:26;;;;;;;;;;;21.80;99.90;;;;;;5005642;28;19913;-79
2022/12/26 13:44:39;;;;;;;;;;;21.90;99.90;;;;;;5009363;28;19929;-89
2022/12/26 13:47:25;;;;;;;;;;;22.00;99.90;;;;;;5009548;28;19918;-87
2022/12/26 13:49:52;;;;;;;;;;;22.00;99.90;;;;;;5009039;28;20007;-77
2022/12/26 13:52:32;;;;;;;;;;;22.00;99.90;;;;;;5008895;28;19979;-87
2022/12/26 13:55:05;;;;;;;;;;;22.00;99.90;;;;;;5008875;28;19972;-91
2022/12/26 13:57:32;;;;;;;;;;;22.00;99.90;;;;;;5009207;28;19924;-90
2022/12/26 14:00:03;;;;;;;;;;;22.00;99.90;;;;;;5009124;28;20055;-86
2022/12/26 14:02:51;;;;;;;;;;;21.90;99.90;;;;;;5009053;28;19968;-88
2022/12/26 14:05:17;;;;;;;;;;;21.90;99.90;;;;;;5008856;28;19921;-90
2022/12/26 14:08:02;;;;;;;;;;;21.90;99.90;;;;;;5008253;28;20005;-84
2022/12/26 14:10:38;;;;;;;;;;;21.90;99.90;;;;;;5009767;28;19914;-91
2022/12/26 14:13:14;;;;;;;;;;;21.80;99.90;;;;;;5017625;28;20360;-90
2022/12/26 14:15:40;;;;;;;;;;;21.80;99.90;;;;;;5016827;28;19988;-89
2022/12/26 14:18:17;;;;;;;;;;;21.80;99.90;;;;;;5017162;28;20006;-85
2022/12/26 14:20:54;;;;;;;;;;;21.80;99.90;;;;;;5017014;28;20253;-88
2022/12/26 14:23:44;;;;;;;;;;;21.90;99.90;;;;;;5016489;28;19917;-84
2022/12/26 14:26:23;;;;;;;;;;;21.90;99.90;;;;;;5016218;28;19918;-89
2022/12/26 14:28:50;;;;;;;;;;;21.90;99.90;;;;;;5016673;28;19932;-87
2022/12/26 14:31:38;;;;;;;;;;;21.90;99.90;;;;;;5016949;28;19916;-75
2022/12/26 14:34:04;;;;;;;;;;;21.90;99.90;;;;;;5017330;28;19916;-89
2022/12/26 14:36:34;;;;;;;;;;;21.90;99.90;;;;;;5017389;28;19909;-90
2022/12/26 14:39:18;;;;;;;;;;;21.90;99.90;;;;;;5017073;28;19943;-79
2022/12/26 14:44:49;;;;;;;;;;;21.90;99.90;;;;;;5016361;28;19945;-91
2022/12/26 14:47:34;;;;;;;;;;;21.90;99.90;;;;;;5017260;28;20420;-90
2022/12/26 14:50:21;;;;;;;;;;;21.90;99.90;;;;;;5016521;28;19909;-90
2022/12/26 14:52:48;;;;;;;;;;;21.90;99.90;;;;;;5001900;28;20327;-90
2022/12/26 14:55:33;;;;;;;;;;;21.90;99.90;;;;;;5016261;28;20060;-91
2022/12/26 14:58:18;;;;;;;;;;;21.90;99.90;;;;;;5016068;28;19952;-91
2022/12/26 15:00:46;;;;;;;;;;;21.90;99.90;;;;;;5016523;28;19909;-91
2022/12/26 15:03:21;;;;;;;;;;;21.80;99.90;;;;;;5016278;28;20280;-74
2022/12/26 15:05:50;;;;;;;;;;;21.80;99.90;;;;;;5015926;28;20322;-69
2022/12/26 15:08:28;;;;;;;;;;;21.80;99.90;;;;;;5015772;28;19910;-81
2022/12/26 15:11:16;;;;;;;;;;;21.80;99.90;;;;;;5015585;28;20199;-77
2022/12/26 15:13:42;;;;;;;;;;;21.80;99.90;;;;;;5015534;28;20350;-73
2022/12/26 15:16:22;;;;;;;;;;;21.80;99.90;;;;;;5015680;28;19921;-80
2022/12/26 15:18:49;;;;;;;;;;;21.80;99.90;;;;;;5015555;28;19913;-70
2022/12/26 15:21:15;;;;;;;;;;;21.80;99.90;;;;;;5015660;28;19921;-74
2022/12/26 15:23:59;;;;;;;;;;;21.80;99.90;;;;;;5015385;28;19917;-73
2022/12/26 15:26:35;;;;;;;;;;;21.70;99.90;;;;;;4998218;28;19933;-73
2022/12/26 15:29:34;;;;;;;;;;;21.70;99.90;;;;;;5016335;28;19917;-71
2022/12/26 15:32:21;;;;;;;;;;;21.70;99.90;;;;;;4979832;28;19917;-70
2022/12/26 15:34:47;;;;;;;;;;;21.70;99.90;;;;;;4985579;28;19910;-67
2022/12/26 15:37:17;;;;;;;;;;;21.70;99.90;;;;;;5024973;28;19909;-65
2022/12/26 15:39:55;;;;;;;;;;;21.60;99.90;;;;;;5025081;28;20372;-73
2022/12/26 15:42:25;;;;;;;;;;;21.60;99.90;;;;;;5014615;28;19910;-78
2022/12/26 15:44:55;;;;;;;;;;;21.60;99.90;;;;;;5014522;28;19982;-71
2022/12/26 15:47:27;;;;;;;;;;;21.50;99.90;;;;;;5015412;28;20369;-79
2022/12/26 15:49:54;;;;;;;;;;;21.50;99.90;;;;;;4997675;28;19914;-70
2022/12/26 15:52:29;;;;;;;;;;;21.50;99.90;;;;;;5014664;28;19916;-75
2022/12/26 15:55:14;;;;;;;;;;;21.40;99.90;;;;;;5014210;28;19929;-78
2022/12/26 15:57:57;;;;;;;;;;;21.40;99.90;;;;;;5014409;28;19913;-82
2022/12/26 16:00:36;;;;;;;;;;;21.40;99.90;;;;;;5012991;28;19943;-69
2022/12/26 16:03:05;;;;;;;;;;;21.30;99.90;;;;;;5014067;28;20000;-66
2022/12/26 16:05:34;;;;;;;;;;;21.40;99.90;;;;;;5012937;28;19917;-71
2022/12/26 16:08:19;;;;;;;;;;;21.40;99.90;;;;;;5014158;28;20295;-72
2022/12/26 16:10:46;;;;;;;;;;;21.40;99.90;;;;;;5014183;28;19910;-65
2022/12/26 16:13:13;;;;;;;;;;;21.40;99.90;;;;;;5013953;28;20265;-69
2022/12/26 16:15:50;;;;;;;;;;;21.40;99.90;;;;;;5013898;28;20048;-73
2022/12/26 16:18:18;;;;;;;;;;;21.40;99.90;;;;;;5014049;28;19910;-68
2022/12/26 16:23:31;;;;;;;;;;;21.30;99.90;;;;;;5014272;28;19921;-69
2022/12/26 16:25:59;;;;;;;;;;;21.20;99.90;;;;;;5013995;28;20481;-70
2022/12/26 16:28:42;;;;;;;;;;;21.20;99.90;;;;;;5013861;28;19968;-72
2022/12/26 16:31:09;;;;;;;;;;;21.20;99.90;;;;;;5013727;28;19925;-71
2022/12/26 16:33:39;;;;;;;;;;;21.20;99.90;;;;;;5013602;28;19910;-69
2022/12/26 16:36:07;;;;;;;;;;;21.10;99.90;;;;;;5013827;28;20272;-70
2022/12/26 16:38:34;;;;;;;;;;;21.10;99.90;;;;;;5013559;28;19996;-71
2022/12/26 16:41:02;;;;;;;;;;;21.20;99.90;;;;;;5013934;28;19996;-68
2022/12/26 16:43:30;;;;;;;;;;;21.20;99.90;;;;;;5013436;28;19920;-65
2022/12/26 16:46:01;;;;;;;;;;;21.30;99.90;;;;;;5013687;28;20011;-68
2022/12/26 16:48:29;;;;;;;;;;;21.30;99.90;;;;;;5013742;28;19987;-70
2022/12/26 16:50:57;;;;;;;;;;;21.30;99.90;;;;;;5013822;28;19914;-68